Time,TemperatureF,DewpointF,PressureIn,WindDirection,WindDirectionDegrees,WindSpeedMPH,WindSpeedGustMPH,Humidity,HourlyPrecipIn,Conditions,Clouds,dailyrainin,SolarRadiationWatts/m^2,SoftwareType,DateUTC
2013-04-24 00:03:00,77.0,66.0,-100.00,ENE,64,13.0,23.0,68,0.00,,,0.00,0.000000,,2013-04-24 04:03:00,
2013-04-24 00:12:00,77.0,66.0,-100.00,ENE,64,13.0,23.0,68,0.00,,,0.00,0.000000,,2013-04-24 04:12:00,
2013-04-24 00:23:00,77.0,66.0,-100.00,ENE,64,13.0,23.0,68,0.00,,,0.00,0.000000,,2013-04-24 04:23:00,
2013-04-24 00:33:00,77.0,66.0,-100.00,ENE,64,13.0,23.0,68,0.00,,,0.00,0.000000,,2013-04-24 04:33:00,
2013-04-24 01:02:00,77.0,67.0,-100.00,ENE,70,12.0,25.0,72,0.00,,,0.00,0.000000,,2013-04-24 05:02:00,
2013-04-24 01:13:00,77.0,67.0,-100.00,ENE,70,12.0,25.0,72,0.00,,,0.00,0.000000,,2013-04-24 05:13:00,
2013-04-24 01:22:00,77.0,67.0,-100.00,ENE,70,12.0,25.0,72,0.00,,,0.00,0.000000,,2013-04-24 05:22:00,
2013-04-24 01:32:00,77.0,67.0,-100.00,ENE,70,12.0,25.0,72,0.00,,,0.00,0.000000,,2013-04-24 05:32:00,
2013-04-24 02:02:00,76.0,65.0,-100.00,ENE,73,12.0,22.0,69,0.00,,,0.00,0.000000,,2013-04-24 06:02:00,
2013-04-24 02:12:00,76.0,65.0,-100.00,ENE,73,12.0,22.0,69,0.00,,,0.00,0.000000,,2013-04-24 06:12:00,
2013-04-24 02:22:00,76.0,65.0,-100.00,ENE,73,12.0,22.0,69,0.00,,,0.00,0.000000,,2013-04-24 06:22:00,
2013-04-24 02:33:00,76.0,65.0,-100.00,ENE,73,12.0,22.0,69,0.00,,,0.00,0.000000,,2013-04-24 06:33:00,
2013-04-24 03:02:00,76.0,65.0,-100.00,ENE,70,13.0,23.0,68,0.00,,,0.00,0.000000,,2013-04-24 07:02:00,
2013-04-24 03:11:00,76.0,65.0,-100.00,ENE,70,13.0,23.0,68,0.00,,,0.00,0.000000,,2013-04-24 07:11:00,
2013-04-24 03:22:00,76.0,65.0,-100.00,ENE,70,13.0,23.0,68,0.00,,,0.00,0.000000,,2013-04-24 07:22:00,
2013-04-24 03:32:00,76.0,65.0,-100.00,ENE,70,13.0,23.0,68,0.00,,,0.00,0.000000,,2013-04-24 07:32:00,
2013-04-24 04:02:00,76.0,65.0,-100.00,ENE,77,10.0,21.0,68,0.00,,,0.00,0.000000,,2013-04-24 08:02:00,
2013-04-24 04:12:00,76.0,65.0,-100.00,ENE,77,10.0,21.0,68,0.00,,,0.00,0.000000,,2013-04-24 08:12:00,
2013-04-24 04:21:00,76.0,65.0,-100.00,ENE,77,10.0,21.0,68,0.00,,,0.00,0.000000,,2013-04-24 08:21:00,
2013-04-24 04:33:00,76.0,65.0,-100.00,ENE,77,10.0,21.0,68,0.00,,,0.00,0.000000,,2013-04-24 08:33:00,
2013-04-24 05:02:00,75.0,64.0,-100.00,ENE,75,10.0,20.0,68,0.00,,,0.00,0.000000,,2013-04-24 09:02:00,
2013-04-24 05:12:00,75.0,64.0,-100.00,ENE,75,10.0,20.0,68,0.00,,,0.00,0.000000,,2013-04-24 09:12:00,
2013-04-24 05:21:00,75.0,64.0,-100.00,ENE,75,10.0,20.0,68,0.00,,,0.00,0.000000,,2013-04-24 09:21:00,
2013-04-24 05:33:00,75.0,64.0,-100.00,ENE,75,10.0,20.0,68,0.00,,,0.00,0.000000,,2013-04-24 09:33:00,
2013-04-24 06:02:00,75.0,65.0,-100.00,ENE,74,9.0,18.0,71,0.00,,,0.00,0.000000,,2013-04-24 10:02:00,
2013-04-24 06:12:00,75.0,65.0,-100.00,ENE,74,9.0,18.0,71,0.00,,,0.00,0.000000,,2013-04-24 10:12:00,
2013-04-24 06:23:00,75.0,65.0,-100.00,ENE,74,9.0,18.0,71,0.00,,,0.00,0.000000,,2013-04-24 10:23:00,
2013-04-24 06:33:00,75.0,65.0,-100.00,ENE,74,9.0,18.0,71,0.00,,,0.00,0.000000,,2013-04-24 10:33:00,
2013-04-24 07:03:00,75.0,65.0,-100.00,ENE,72,8.0,17.0,71,0.00,,,0.00,0.000000,,2013-04-24 11:03:00,
2013-04-24 07:12:00,75.0,65.0,-100.00,ENE,72,8.0,17.0,71,0.00,,,0.00,0.000000,,2013-04-24 11:12:00,
2013-04-24 07:22:00,75.0,65.0,-100.00,ENE,72,8.0,17.0,71,0.00,,,0.00,0.000000,,2013-04-24 11:22:00,
2013-04-24 07:32:00,75.0,65.0,-100.00,ENE,72,8.0,17.0,71,0.00,,,0.00,0.000000,,2013-04-24 11:32:00,
2013-04-24 08:02:00,76.0,65.0,-100.00,ENE,76,7.0,13.0,69,0.00,,,0.00,24.000000,,2013-04-24 12:02:00,
2013-04-24 08:12:00,76.0,65.0,-100.00,ENE,76,7.0,13.0,69,0.00,,,0.00,24.000000,,2013-04-24 12:12:00,
2013-04-24 08:22:00,76.0,65.0,-100.00,ENE,76,7.0,13.0,69,0.00,,,0.00,24.000000,,2013-04-24 12:22:00,
2013-04-24 08:32:00,76.0,65.0,-100.00,ENE,76,7.0,13.0,69,0.00,,,0.00,24.000000,,2013-04-24 12:32:00,
2013-04-24 09:01:00,79.0,67.0,-100.00,ENE,71,7.0,12.0,66,0.00,,,0.00,190.000000,,2013-04-24 13:01:00,
2013-04-24 09:12:00,79.0,67.0,-100.00,ENE,71,7.0,12.0,66,0.00,,,0.00,190.000000,,2013-04-24 13:12:00,
2013-04-24 09:22:00,79.0,67.0,-100.00,ENE,71,7.0,12.0,66,0.00,,,0.00,190.000000,,2013-04-24 13:22:00,
2013-04-24 09:32:00,79.0,67.0,-100.00,ENE,71,7.0,12.0,66,0.00,,,0.00,190.000000,,2013-04-24 13:32:00,
2013-04-24 11:01:00,84.0,67.0,-100.00,East,91,6.0,14.0,56,-99.99,,,0.00,572.000000,,2013-04-24 15:01:00,
2013-04-24 11:11:00,84.0,67.0,-100.00,East,91,6.0,14.0,56,-99.99,,,0.00,572.000000,,2013-04-24 15:11:00,
2013-04-24 11:22:00,84.0,67.0,-100.00,East,91,6.0,14.0,56,-99.99,,,0.00,572.000000,,2013-04-24 15:22:00,
2013-04-24 11:33:00,84.0,67.0,-100.00,East,91,6.0,14.0,56,-99.99,,,0.00,572.000000,,2013-04-24 15:33:00,
2013-04-24 12:03:00,85.0,66.0,-100.00,East,96,7.0,13.0,54,0.00,,,0.00,766.000000,,2013-04-24 16:03:00,
2013-04-24 12:12:00,85.0,66.0,-100.00,East,96,7.0,13.0,54,0.00,,,0.00,766.000000,,2013-04-24 16:12:00,
2013-04-24 12:23:00,85.0,66.0,-100.00,East,96,7.0,13.0,54,0.00,,,0.00,766.000000,,2013-04-24 16:23:00,
2013-04-24 12:32:00,85.0,66.0,-100.00,East,96,7.0,13.0,54,0.00,,,0.00,766.000000,,2013-04-24 16:32:00,
2013-04-24 13:02:00,85.0,68.0,-100.00,East,93,8.0,15.0,57,0.00,,,0.00,868.000000,,2013-04-24 17:02:00,
2013-04-24 13:12:00,85.0,68.0,-100.00,East,93,8.0,15.0,57,0.00,,,0.00,868.000000,,2013-04-24 17:12:00,
2013-04-24 13:22:00,85.0,68.0,-100.00,East,93,8.0,15.0,57,0.00,,,0.00,868.000000,,2013-04-24 17:22:00,
2013-04-24 13:32:00,85.0,68.0,-100.00,East,93,8.0,15.0,57,0.00,,,0.00,868.000000,,2013-04-24 17:32:00,
2013-04-24 14:02:00,85.0,66.0,-100.00,ESE,109,7.0,16.0,54,0.00,,,0.00,825.000000,,2013-04-24 18:02:00,
2013-04-24 14:12:00,85.0,66.0,-100.00,ESE,109,7.0,16.0,54,0.00,,,0.00,825.000000,,2013-04-24 18:12:00,
2013-04-24 14:22:00,85.0,66.0,-100.00,ESE,109,7.0,16.0,54,0.00,,,0.00,825.000000,,2013-04-24 18:22:00,
2013-04-24 14:33:00,85.0,66.0,-100.00,ESE,109,7.0,16.0,54,0.00,,,0.00,825.000000,,2013-04-24 18:33:00,
2013-04-24 15:02:00,85.0,67.0,-100.00,ESE,105,7.0,14.0,55,0.00,,,0.00,918.000000,,2013-04-24 19:02:00,
2013-04-24 15:12:00,85.0,67.0,-100.00,ESE,105,7.0,14.0,55,0.00,,,0.00,918.000000,,2013-04-24 19:12:00,
2013-04-24 15:22:00,85.0,67.0,-100.00,ESE,105,7.0,14.0,55,0.00,,,0.00,918.000000,,2013-04-24 19:22:00,
2013-04-24 15:32:00,85.0,67.0,-100.00,ESE,105,7.0,14.0,55,0.00,,,0.00,918.000000,,2013-04-24 19:32:00,
2013-04-24 16:02:00,85.0,67.0,-100.00,ESE,110,6.0,16.0,55,0.00,,,0.00,854.000000,,2013-04-24 20:02:00,
2013-04-24 16:11:00,85.0,67.0,-100.00,ESE,110,6.0,16.0,55,0.00,,,0.00,854.000000,,2013-04-24 20:11:00,
2013-04-24 16:22:00,85.0,67.0,-100.00,ESE,110,6.0,16.0,55,0.00,,,0.00,854.000000,,2013-04-24 20:22:00,
2013-04-24 16:32:00,85.0,67.0,-100.00,ESE,110,6.0,16.0,55,0.00,,,0.00,854.000000,,2013-04-24 20:32:00,
2013-04-24 17:02:00,83.0,67.0,-100.00,East,81,7.0,14.0,58,0.00,,,0.00,645.000000,,2013-04-24 21:02:00,
2013-04-24 17:12:00,83.0,67.0,-100.00,East,81,7.0,14.0,58,0.00,,,0.00,645.000000,,2013-04-24 21:12:00,
2013-04-24 17:22:00,83.0,67.0,-100.00,East,81,7.0,14.0,58,0.00,,,0.00,645.000000,,2013-04-24 21:22:00,
2013-04-24 17:33:00,83.0,67.0,-100.00,East,81,7.0,14.0,58,0.00,,,0.00,645.000000,,2013-04-24 21:33:00,
2013-04-24 18:03:00,83.0,66.0,-100.00,East,98,7.0,14.0,57,0.00,,,0.00,468.000000,,2013-04-24 22:03:00,
2013-04-24 18:12:00,83.0,66.0,-100.00,East,98,7.0,14.0,57,0.00,,,0.00,468.000000,,2013-04-24 22:12:00,
2013-04-24 18:22:00,83.0,66.0,-100.00,East,98,7.0,14.0,57,0.00,,,0.00,468.000000,,2013-04-24 22:22:00,
2013-04-24 18:33:00,83.0,66.0,-100.00,East,98,7.0,14.0,57,0.00,,,0.00,468.000000,,2013-04-24 22:33:00,
2013-04-24 19:02:00,81.0,65.0,-100.00,East,85,8.0,15.0,58,0.00,,,0.00,292.000000,,2013-04-24 23:02:00,
2013-04-24 19:12:00,81.0,65.0,-100.00,East,85,8.0,15.0,58,0.00,,,0.00,292.000000,,2013-04-24 23:12:00,
2013-04-24 19:22:00,81.0,65.0,-100.00,East,85,8.0,15.0,58,0.00,,,0.00,292.000000,,2013-04-24 23:22:00,
2013-04-24 19:32:00,81.0,65.0,-100.00,East,85,8.0,15.0,58,0.00,,,0.00,292.000000,,2013-04-24 23:32:00,
2013-04-24 20:02:00,78.0,64.0,-100.00,East,91,8.0,16.0,63,0.00,,,0.00,106.000000,,2013-04-25 00:02:00,
2013-04-24 20:12:00,78.0,64.0,-100.00,East,91,8.0,16.0,63,0.00,,,0.00,106.000000,,2013-04-25 00:12:00,
2013-04-24 20:23:00,78.0,64.0,-100.00,East,91,8.0,16.0,63,0.00,,,0.00,106.000000,,2013-04-25 00:23:00,
2013-04-24 20:32:00,78.0,64.0,-100.00,East,91,8.0,16.0,63,0.00,,,0.00,106.000000,,2013-04-25 00:32:00,
2013-04-24 21:02:00,77.0,65.0,-100.00,East,97,9.0,17.0,66,0.00,,,0.00,3.000000,,2013-04-25 01:02:00,
2013-04-24 21:12:00,77.0,65.0,-100.00,East,97,9.0,17.0,66,0.00,,,0.00,3.000000,,2013-04-25 01:12:00,
2013-04-24 21:23:00,77.0,65.0,-100.00,East,97,9.0,17.0,66,0.00,,,0.00,3.000000,,2013-04-25 01:23:00,
2013-04-24 21:32:00,77.0,65.0,-100.00,East,97,9.0,17.0,66,0.00,,,0.00,3.000000,,2013-04-25 01:32:00,
2013-04-24 22:02:00,77.0,63.0,-100.00,East,92,10.0,19.0,63,0.00,,,0.00,0.000000,,2013-04-25 02:02:00,
2013-04-24 22:11:00,77.0,63.0,-100.00,East,92,10.0,19.0,63,0.00,,,0.00,0.000000,,2013-04-25 02:11:00,
2013-04-24 22:22:00,77.0,63.0,-100.00,East,92,10.0,19.0,63,0.00,,,0.00,0.000000,,2013-04-25 02:22:00,
2013-04-24 22:32:00,77.0,63.0,-100.00,East,92,10.0,19.0,63,0.00,,,0.00,0.000000,,2013-04-25 02:32:00,
2013-04-24 23:02:00,77.0,64.0,-100.00,East,98,9.0,19.0,64,0.00,,,0.00,0.000000,,2013-04-25 03:02:00,
2013-04-24 23:11:00,77.0,64.0,-100.00,East,98,9.0,19.0,64,0.00,,,0.00,0.000000,,2013-04-25 03:11:00,
2013-04-24 23:22:00,77.0,64.0,-100.00,East,98,9.0,19.0,64,0.00,,,0.00,0.000000,,2013-04-25 03:22:00,
2013-04-24 23:33:00,77.0,64.0,-100.00,East,98,9.0,19.0,64,0.00,,,0.00,0.000000,,2013-04-25 03:33:00,